Time;durP1;ratioP1;P1;durP2;ratioP2;P2;SDS_P1;SDS_P2;PMS_P1;PMS_P2;Temp;Humidity;BMP_temperature;BMP_pressure;BME280_temperature;BME280_humidity;BME280_pressure;Samples;Min_cycle;Max_cycle;Signal;HPM_P1;HPM_P2
2021/05/05 00:00:57;;;;;;;2.45;1.00;;;;;;;9.15;80.22;99326.22;5046389;28;20044;-69
2021/05/05 00:03:22;;;;;;;2.47;1.10;;;;;;;9.18;79.87;99325.06;5048319;28;20431;-70
2021/05/05 00:05:48;;;;;;;1.88;1.00;;;;;;;9.13;80.04;99323.78;5042530;28;20474;-70
2021/05/05 00:08:13;;;;;;;1.90;0.88;;;;;;;9.08;80.29;99320.84;5044427;28;20032;-70
2021/05/05 00:10:38;;;;;;;2.30;1.10;;;;;;;9.10;79.68;99326.72;5040950;28;20036;-70
2021/05/05 00:13:04;;;;;;;2.95;1.00;;;;;;;9.04;80.47;99326.63;5038471;28;20276;-70
2021/05/05 00:15:29;;;;;;;3.28;1.00;;;;;;;9.10;79.60;99336.47;5030771;28;20052;-70
2021/05/05 00:17:54;;;;;;;2.95;1.08;;;;;;;9.09;79.96;99329.56;5045512;28;20107;-70
2021/05/05 00:20:21;;;;;;;2.38;0.90;;;;;;;9.10;79.88;99332.00;5048203;28;20308;-70
2021/05/05 00:22:48;;;;;;;1.90;0.90;;;;;;;9.09;80.28;99325.09;5046441;28;20594;-70
2021/05/05 00:25:13;;;;;;;1.52;0.70;;;;;;;9.08;80.77;99339.28;5049266;28;20090;-70
2021/05/05 00:27:39;;;;;;;1.77;1.05;;;;;;;9.09;80.07;99348.00;5042779;28;20041;-71
2021/05/05 00:30:06;;;;;;;1.13;0.80;;;;;;;9.07;80.83;99350.81;5048236;28;20045;-70
2021/05/05 00:32:32;;;;;;;2.17;0.93;;;;;;;9.05;80.74;99349.34;5048734;28;20112;-70
2021/05/05 00:34:57;;;;;;;2.30;1.00;;;;;;;9.07;80.52;99345.53;5040678;28;20187;-70
2021/05/05 00:37:23;;;;;;;1.90;0.90;;;;;;;9.08;80.44;99331.38;5047180;28;20044;-70
2021/05/05 00:39:51;;;;;;;1.27;0.82;;;;;;;9.14;79.94;99340.41;5045251;28;20082;-70
2021/05/05 00:42:16;;;;;;;1.15;0.77;;;;;;;9.16;79.57;99342.88;5045663;28;20033;-70
2021/05/05 00:44:42;;;;;;;1.83;0.88;;;;;;;9.07;79.53;99342.09;5041717;28;20400;-70
2021/05/05 00:47:08;;;;;;;1.77;0.80;;;;;;;9.08;79.10;99347.19;5042966;28;20037;-70
2021/05/05 00:49:33;;;;;;;2.60;0.77;;;;;;;9.04;79.52;99339.78;5041151;28;20296;-69
2021/05/05 00:51:58;;;;;;;1.10;0.82;;;;;;;9.07;78.73;99340.25;5044200;28;20121;-70
2021/05/05 00:54:23;;;;;;;0.95;0.70;;;;;;;8.95;79.33;99340.81;5048460;28;20032;-70
2021/05/05 00:56:49;;;;;;;1.63;0.80;;;;;;;8.99;79.40;99340.31;5044745;28;20075;-70
2021/05/05 00:59:15;;;;;;;2.88;0.80;;;;;;;8.99;79.07;99336.84;5048160;28;20397;-69
2021/05/05 01:01:42;;;;;;;2.90;1.17;;;;;;;9.03;78.63;99323.13;5043923;28;20035;-69
2021/05/05 01:04:08;;;;;;;2.35;0.95;;;;;;;8.92;79.06;99319.06;5048645;28;20037;-70
2021/05/05 01:06:34;;;;;;;1.73;0.80;;;;;;;8.94;78.65;99305.72;5043108;28;20417;-69
2021/05/05 01:09:00;;;;;;;1.55;0.80;;;;;;;8.91;78.37;99288.44;5046996;28;20032;-70
2021/05/05 01:11:26;;;;;;;2.42;1.00;;;;;;;8.92;78.43;99291.91;5044048;28;20039;-70
2021/05/05 01:13:52;;;;;;;1.67;0.80;;;;;;;8.91;77.61;99287.59;5034723;28;20533;-70
2021/05/05 01:16:17;;;;;;;2.83;0.88;;;;;;;8.95;77.84;99285.44;5033264;28;20065;-70
2021/05/05 01:18:42;;;;;;;1.77;0.80;;;;;;;8.88;78.18;99282.69;5046180;28;20071;-70
2021/05/05 01:21:08;;;;;;;1.70;1.00;;;;;;;8.90;78.19;99275.41;5043314;28;20056;-70
2021/05/05 01:23:34;;;;;;;1.65;0.75;;;;;;;8.84;78.33;99276.09;5049771;28;20090;-70
2021/05/05 01:26:00;;;;;;;1.42;0.80;;;;;;;8.81;77.94;99287.00;5044506;28;20025;-70
2021/05/05 01:28:25;;;;;;;1.08;0.70;;;;;;;8.79;78.02;99281.06;5033498;28;20033;-70
2021/05/05 01:30:51;;;;;;;1.98;0.80;;;;;;;8.83;77.55;99285.00;5041940;28;20113;-70
2021/05/05 01:33:17;;;;;;;1.27;0.65;;;;;;;8.80;77.49;99298.53;5050157;28;20025;-70
2021/05/05 01:35:45;;;;;;;3.50;0.93;;;;;;;8.75;77.49;99308.75;5042265;28;20036;-70
2021/05/05 01:38:10;;;;;;;2.22;1.05;;;;;;;8.73;77.42;99308.13;5050048;28;20059;-70
2021/05/05 01:40:36;;;;;;;2.30;0.90;;;;;;;8.71;77.05;99303.81;5042412;28;20462;-70
2021/05/05 01:43:05;;;;;;;2.35;1.00;;;;;;;8.71;77.09;99301.19;5050344;28;20044;-70
2021/05/05 01:45:30;;;;;;;1.52;0.82;;;;;;;8.66;76.88;99300.06;5043079;28;20029;-70
2021/05/05 01:47:58;;;;;;;1.27;0.63;;;;;;;8.61;77.27;99297.13;5044144;28;20036;-70
2021/05/05 01:50:24;;;;;;;1.80;0.80;;;;;;;8.63;77.35;99305.69;5049069;28;20048;-70
2021/05/05 01:52:49;;;;;;;1.38;0.70;;;;;;;8.59;77.61;99307.81;5044510;28;20025;-70
2021/05/05 01:55:15;;;;;;;2.40;0.80;;;;;;;8.63;77.67;99306.50;5046880;28;20078;-70
2021/05/05 01:57:46;;;;;;;2.25;0.80;;;;;;;8.58;77.17;99311.44;5038018;28;20229;-70
2021/05/05 02:00:20;;;;;;;;;;;;;;;8.59;76.97;99317.53;5039316;28;20034;-70
2021/05/05 02:02:45;;;;;;;1.50;0.80;;;;;;;8.51;77.22;99305.22;5037328;28;20372;-70
2021/05/05 02:05:12;;;;;;;3.67;1.00;;;;;;;8.62;76.74;99304.00;5048509;28;20044;-70
2021/05/05 02:07:38;;;;;;;3.70;1.00;;;;;;;8.64;76.59;99315.22;5045921;28;20075;-70
2021/05/05 02:10:10;;;;;;;2.33;0.77;;;;;;;8.53;77.32;99310.28;5043232;28;20041;-70
2021/05/05 02:12:36;;;;;;;2.50;0.95;;;;;;;8.62;76.65;99298.75;5050491;28;20077;-70
2021/05/05 02:15:02;;;;;;;3.28;1.10;;;;;;;8.63;76.51;99295.13;5036863;28;20477;-70
2021/05/05 02:17:28;;;;;;;1.05;0.75;;;;;;;8.53;77.00;99291.84;5050854;28;20032;-71
2021/05/05 02:19:54;;;;;;;2.00;1.00;;;;;;;8.61;76.74;99286.56;5059678;28;20033;-70
2021/05/05 02:22:19;;;;;;;1.88;0.80;;;;;;;8.44;79.20;99285.81;5044962;28;20102;-70
2021/05/05 02:24:44;;;;;;;1.42;0.80;;;;;;;8.38;79.15;99276.72;5049512;28;20378;-70
2021/05/05 02:27:10;;;;;;;2.08;0.90;;;;;;;8.40;78.17;99272.13;5052718;28;20039;-70
2021/05/05 02:29:35;;;;;;;1.83;0.90;;;;;;;8.43;77.68;99257.78;5041977;28;20033;-70
2021/05/05 02:32:05;;;;;;;1.55;0.73;;;;;;;8.42;77.81;99264.06;5043809;28;20128;-70
2021/05/05 02:34:30;;;;;;;2.40;0.90;;;;;;;8.40;78.09;99266.84;5051269;28;20051;-70
2021/05/05 02:36:56;;;;;;;2.65;0.80;;;;;;;8.37;78.29;99272.44;5048170;28;20560;-70
2021/05/05 02:39:22;;;;;;;3.70;0.90;;;;;;;8.45;77.59;99266.34;5045568;28;20116;-70
2021/05/05 02:41:48;;;;;;;1.50;0.88;;;;;;;8.43;77.92;99263.06;5046049;28;20053;-70
2021/05/05 02:44:15;;;;;;;2.40;0.85;;;;;;;8.38;78.20;99265.34;5046816;28;20041;-70
2021/05/05 02:46:40;;;;;;;2.60;0.90;;;;;;;8.43;77.68;99270.97;5041367;28;20056;-70
2021/05/05 02:49:06;;;;;;;1.58;0.88;;;;;;;8.42;77.67;99282.50;5047476;28;20065;-70
2021/05/05 02:51:32;;;;;;;1.23;0.70;;;;;;;8.34;78.21;99285.94;5050691;28;20111;-70
2021/05/05 02:53:58;;;;;;;2.60;0.85;;;;;;;8.33;79.03;99289.56;5048353;28;20678;-70
2021/05/05 02:56:23;;;;;;;2.25;0.80;;;;;;;8.33;78.98;99297.47;5041048;28;20052;-70
2021/05/05 02:58:49;;;;;;;1.83;0.90;;;;;;;8.33;78.19;99301.91;5049426;28;20029;-70
2021/05/05 03:01:14;;;;;;;2.72;1.00;;;;;;;8.33;78.32;99312.44;5050481;28;20067;-70
2021/05/05 03:03:40;;;;;;;2.22;0.93;;;;;;;8.34;78.35;99296.47;5045293;28;20029;-69
2021/05/05 03:06:05;;;;;;;4.20;0.93;;;;;;;8.20;79.34;99298.00;5042194;28;20068;-70
2021/05/05 03:08:31;;;;;;;2.22;0.88;;;;;;;8.24;79.20;99303.72;5046562;28;20041;-70
2021/05/05 03:10:57;;;;;;;2.47;0.95;;;;;;;8.24;78.98;99299.28;5039644;28;20406;-70
2021/05/05 03:13:22;;;;;;;2.33;0.90;;;;;;;8.25;79.02;99308.03;5033986;28;20044;-70
2021/05/05 03:15:47;;;;;;;2.13;1.08;;;;;;;8.28;79.01;99305.88;5032289;28;20037;-70
2021/05/05 03:18:13;;;;;;;2.85;0.90;;;;;;;8.25;78.92;99306.22;5042791;28;20044;-70
2021/05/05 03:20:38;;;;;;;2.42;0.90;;;;;;;8.26;79.01;99299.94;5047670;28;20284;-70
2021/05/05 03:23:04;;;;;;;3.60;0.90;;;;;;;8.22;79.56;99306.56;5050993;28;20033;-70
2021/05/05 03:25:29;;;;;;;1.92;0.95;;;;;;;8.25;79.94;99300.13;5037928;28;20120;-70
2021/05/05 03:27:54;;;;;;;2.47;0.90;;;;;;;8.22;79.59;99309.19;5050275;28;20183;-70
2021/05/05 03:30:22;;;;;;;2.15;0.90;;;;;;;8.25;79.18;99308.03;5057861;28;20571;-70
2021/05/05 03:32:47;;;;;;;2.13;0.85;;;;;;;8.19;79.84;99303.41;5046073;28;20033;-70
2021/05/05 03:35:13;;;;;;;1.52;0.80;;;;;;;8.21;79.60;99304.88;5044408;28;20045;-70
2021/05/05 03:37:38;;;;;;;2.13;1.00;;;;;;;8.17;79.76;99316.72;5051610;28;20490;-70
2021/05/05 03:40:05;;;;;;;2.30;1.10;;;;;;;8.16;80.00;99306.38;5041929;28;20041;-70
2021/05/05 03:42:31;;;;;;;1.60;0.90;;;;;;;8.21;79.54;99306.72;5047321;28;20039;-70
2021/05/05 03:44:58;;;;;;;1.70;0.90;;;;;;;8.22;79.43;99306.56;5051588;28;20037;-70
2021/05/05 03:47:23;;;;;;;3.42;1.08;;;;;;;8.17;80.69;99308.03;5039737;28;20253;-70
2021/05/05 03:49:48;;;;;;;1.85;0.98;;;;;;;8.16;80.65;99312.47;5048502;28;20126;-70
2021/05/05 03:52:14;;;;;;;2.58;1.20;;;;;;;8.22;79.64;99311.81;5047527;28;20029;-70
2021/05/05 03:54:39;;;;;;;2.47;1.13;;;;;;;8.22;79.69;99313.59;5050115;28;20025;-70
2021/05/05 03:57:05;;;;;;;4.20;1.65;;;;;;;8.20;79.76;99311.16;5046890;28;20040;-70
2021/05/05 03:59:30;;;;;;;3.47;1.60;;;;;;;8.17;79.78;99313.28;5047219;28;20335;-70
2021/05/05 04:01:55;;;;;;;3.25;1.25;;;;;;;8.14;79.68;99314.44;5046647;28;20512;-69
2021/05/05 04:04:21;;;;;;;2.83;1.20;;;;;;;8.15;79.82;99310.84;5045145;28;20049;-70
2021/05/05 04:06:46;;;;;;;2.40;1.17;;;;;;;8.14;79.83;99314.44;5051894;28;20036;-70
2021/05/05 04:09:11;;;;;;;2.13;1.08;;;;;;;8.20;79.48;99312.94;5042661;28;20490;-70
2021/05/05 04:11:37;;;;;;;1.55;1.00;;;;;;;8.14;79.47;99316.25;5050172;28;20434;-70
2021/05/05 04:14:03;;;;;;;1.75;1.00;;;;;;;8.11;79.63;99312.16;5036065;28;20475;-70
2021/05/05 04:16:28;;;;;;;3.63;1.13;;;;;;;8.16;79.80;99319.56;5038255;28;20040;-70
2021/05/05 04:18:54;;;;;;;3.25;1.00;;;;;;;8.08;79.86;99318.56;5046440;28;20037;-70
2021/05/05 04:21:20;;;;;;;4.32;1.25;;;;;;;8.07;79.88;99324.81;5047381;28;20041;-70
2021/05/05 04:23:46;;;;;;;4.03;1.20;;;;;;;7.91;81.44;99323.97;5045863;28;20026;-70
2021/05/05 04:26:11;;;;;;;1.52;0.90;;;;;;;7.90;80.89;99331.06;5048002;28;20044;-70
2021/05/05 04:28:37;;;;;;;2.10;0.90;;;;;;;7.96;80.15;99337.47;5041959;28;20025;-70
2021/05/05 04:31:04;;;;;;;2.17;0.93;;;;;;;7.93;79.96;99343.88;5043783;28;20037;-70
2021/05/05 04:33:29;;;;;;;2.80;1.00;;;;;;;7.91;80.78;99352.94;5050275;28;20021;-71
2021/05/05 04:35:54;;;;;;;1.67;0.90;;;;;;;7.92;80.51;99354.59;5036342;28;20517;-70
2021/05/05 04:38:20;;;;;;;2.25;1.13;;;;;;;7.90;79.20;99369.72;5045045;28;20115;-70
2021/05/05 04:40:45;;;;;;;2.45;1.10;;;;;;;7.94;78.53;99371.06;5050501;28;20056;-70
2021/05/05 04:43:10;;;;;;;2.70;1.17;;;;;;;7.92;78.42;99373.03;5043448;28;20051;-70
2021/05/05 04:45:36;;;;;;;5.20;1.50;;;;;;;7.98;78.54;99364.47;5048949;28;20087;-70
2021/05/05 04:48:01;;;;;;;1.88;1.10;;;;;;;7.92;79.60;99378.28;5044722;28;20037;-71
2021/05/05 04:50:27;;;;;;;3.55;1.55;;;;;;;8.00;79.21;99370.38;5046034;28;20120;-70
2021/05/05 04:52:53;;;;;;;2.72;1.48;;;;;;;7.98;79.54;99369.72;5043325;28;20041;-70
2021/05/05 04:55:18;;;;;;;1.70;1.10;;;;;;;7.93;80.40;99379.94;5049245;28;20211;-70
2021/05/05 04:57:44;;;;;;;3.35;1.35;;;;;;;7.92;80.26;99380.91;5043386;28;20063;-70
2021/05/05 05:00:10;;;;;;;2.53;1.73;;;;;;;7.93;80.49;99378.09;5042638;28;20048;-70
2021/05/05 05:02:35;;;;;;;3.35;1.67;;;;;;;7.93;80.15;99382.56;5049740;28;20057;-70
2021/05/05 05:05:04;;;;;;;2.78;1.38;;;;;;;7.86;81.72;99388.50;5042128;28;20033;-70
2021/05/05 05:07:29;;;;;;;3.72;1.67;;;;;;;7.86;79.77;99390.28;5037612;28;20126;-72
2021/05/05 05:09:55;;;;;;;5.82;1.50;;;;;;;7.82;79.25;99392.41;5043143;28;20036;-70
2021/05/05 05:12:20;;;;;;;5.03;1.70;;;;;;;7.82;78.63;99400.31;5046179;28;20033;-71
2021/05/05 05:14:46;;;;;;;4.20;1.60;;;;;;;7.79;76.94;99405.88;5032421;28;20025;-72
2021/05/05 05:17:11;;;;;;;5.07;1.65;;;;;;;7.85;77.92;99409.69;5033148;28;20040;-70
2021/05/05 05:19:36;;;;;;;4.85;1.40;;;;;;;7.99;73.43;99410.88;5049754;28;20132;-71
2021/05/05 05:22:02;;;;;;;4.50;2.00;;;;;;;8.08;72.06;99409.91;5047669;28;20064;-72
2021/05/05 05:24:28;;;;;;;4.97;1.60;;;;;;;8.30;68.18;99422.41;5041138;28;20090;-72
2021/05/05 05:26:53;;;;;;;4.18;1.50;;;;;;;8.52;68.09;99421.94;5049404;28;20044;-71
2021/05/05 05:29:19;;;;;;;6.40;1.48;;;;;;;8.86;68.82;99427.00;5042589;28;20120;-71
2021/05/05 05:31:45;;;;;;;5.63;2.03;;;;;;;9.03;65.96;99423.34;5048884;28;20053;-69
2021/05/05 05:34:10;;;;;;;5.53;1.63;;;;;;;9.14;62.00;99433.53;5040436;28;20405;-73
2021/05/05 05:36:36;;;;;;;6.03;1.27;;;;;;;9.32;63.51;99435.16;5044247;28;20029;-72
2021/05/05 05:39:02;;;;;;;6.22;1.50;;;;;;;9.62;60.22;99432.69;5045026;28;20053;-72
2021/05/05 05:41:27;;;;;;;8.50;1.50;;;;;;;9.77;60.28;99441.50;5049909;28;20043;-71
2021/05/05 05:43:53;;;;;;;4.30;1.50;;;;;;;9.98;57.41;99447.00;5047974;28;20029;-70
2021/05/05 05:46:18;;;;;;;4.15;1.60;;;;;;;10.30;57.58;99441.72;5047699;28;20044;-71
2021/05/05 05:48:43;;;;;;;6.30;1.40;;;;;;;10.52;57.72;99442.72;5043568;28;20054;-72
2021/05/05 05:51:09;;;;;;;5.72;1.50;;;;;;;10.68;57.17;99439.94;5055998;28;20043;-72
2021/05/05 05:53:34;;;;;;;7.40;1.55;;;;;;;11.08;55.70;99440.50;5048672;28;20033;-71
2021/05/05 05:56:00;;;;;;;5.35;1.30;;;;;;;11.27;55.82;99437.34;5047335;28;20068;-70
2021/05/05 05:58:25;;;;;;;6.72;2.05;;;;;;;11.28;54.25;99443.44;5048928;28;20523;-70
2021/05/05 06:00:51;;;;;;;5.32;1.25;;;;;;;11.50;53.84;99444.34;5051699;28;20037;-70
2021/05/05 06:03:16;;;;;;;4.22;1.30;;;;;;;11.87;52.94;99448.69;5049535;28;20391;-70
2021/05/05 06:05:41;;;;;;;4.70;1.67;;;;;;;11.78;51.56;99446.31;5043551;28;20127;-71
2021/05/05 06:08:07;;;;;;;4.00;1.33;;;;;;;11.96;52.56;99445.94;5049598;28;20506;-71
2021/05/05 06:10:32;;;;;;;5.60;1.80;;;;;;;12.13;50.85;99457.91;5051375;28;20134;-70
2021/05/05 06:12:57;;;;;;;5.53;1.75;;;;;;;12.43;48.08;99461.28;5042700;28;20029;-73
2021/05/05 06:15:23;;;;;;;5.68;1.25;;;;;;;12.71;49.01;99465.81;5037023;28;20029;-72
2021/05/05 06:17:49;;;;;;;6.78;1.60;;;;;;;12.64;47.13;99464.94;5050263;28;20037;-73
2021/05/05 06:20:16;;;;;;;7.60;1.55;;;;;;;12.66;46.92;99468.22;5052839;28;20540;-70
2021/05/05 06:22:41;;;;;;;5.22;2.10;;;;;;;13.03;47.70;99466.25;5041645;28;20437;-72
2021/05/05 06:25:07;;;;;;;6.70;1.80;;;;;;;13.21;49.02;99466.59;5051543;28;20033;-71
2021/05/05 06:27:34;;;;;;;5.07;1.80;;;;;;;13.15;48.13;99467.34;5048464;28;20297;-71
2021/05/05 06:30:00;;;;;;;4.53;1.60;;;;;;;13.27;48.93;99473.78;5053484;28;20037;-71
2021/05/05 06:32:25;;;;;;;6.13;1.40;;;;;;;13.53;47.04;99469.66;5044941;28;20030;-71
2021/05/05 06:34:52;;;;;;;4.63;1.35;;;;;;;13.66;45.73;99475.03;5049927;28;20478;-72
2021/05/05 06:37:17;;;;;;;5.85;1.60;;;;;;;13.55;47.27;99480.91;5059219;28;20047;-72
2021/05/05 06:39:43;;;;;;;4.40;1.20;;;;;;;14.18;45.95;99489.53;5044671;28;20033;-71
2021/05/05 06:42:08;;;;;;;5.03;1.20;;;;;;;14.61;45.16;99504.34;5050452;28;20072;-71
2021/05/05 06:44:34;;;;;;;4.55;1.40;;;;;;;14.12;45.88;99500.94;5048003;28;20029;-71
2021/05/05 06:46:59;;;;;;;5.22;1.50;;;;;;;13.94;46.91;99490.88;5045537;28;20128;-71
2021/05/05 06:49:25;;;;;;;4.03;1.42;;;;;;;13.66;44.67;99503.41;5047803;28;20044;-72
2021/05/05 06:51:52;;;;;;;4.03;1.35;;;;;;;13.01;45.59;99503.59;5043131;28;20036;-71
2021/05/05 06:54:18;;;;;;;7.82;1.65;;;;;;;12.53;47.39;99498.91;5040684;28;20200;-71
2021/05/05 06:56:43;;;;;;;5.28;1.73;;;;;;;11.88;48.97;99507.78;5040749;28;20037;-70
2021/05/05 06:59:09;;;;;;;4.80;1.50;;;;;;;12.20;48.25;99501.22;5036572;28;20044;-71
2021/05/05 07:01:39;;;;;;;5.88;1.40;;;;;;;12.56;47.37;99503.03;5039394;28;20033;-70
2021/05/05 07:04:08;;;;;;;5.43;1.30;;;;;;;13.35;44.81;99510.81;5033380;28;20052;-71
2021/05/05 07:06:34;;;;;;;6.68;1.63;;;;;;;13.59;46.27;99511.38;5034811;28;20033;-70
2021/05/05 07:09:00;;;;;;;5.22;1.50;;;;;;;13.80;43.61;99513.94;5041334;28;20025;-71
2021/05/05 07:11:27;;;;;;;4.53;1.40;;;;;;;13.42;44.42;99510.03;5033974;28;20125;-71
2021/05/05 07:13:53;;;;;;;6.13;1.40;;;;;;;12.80;46.59;99517.72;5035300;28;20043;-71
2021/05/05 07:16:20;;;;;;;6.00;1.48;;;;;;;12.50;47.90;99517.03;5046005;28;20511;-71
2021/05/05 07:18:45;;;;;;;6.82;1.58;;;;;;;12.80;47.22;99527.50;5051963;28;20409;-70
2021/05/05 07:21:11;;;;;;;6.97;1.92;;;;;;;12.35;47.01;99516.25;5045108;28;20030;-71
2021/05/05 07:23:36;;;;;;;6.32;1.70;;;;;;;12.90;47.00;99515.56;5051894;28;20032;-71
2021/05/05 07:26:02;;;;;;;4.07;1.50;;;;;;;13.96;42.92;99523.38;5043749;28;20041;-71
2021/05/05 07:28:27;;;;;;;4.20;1.33;;;;;;;14.30;42.75;99524.34;5050043;28;20032;-70
2021/05/05 07:30:53;;;;;;;2.92;1.20;;;;;;;14.44;42.25;99523.34;5047337;28;20037;-71
2021/05/05 07:33:18;;;;;;;5.78;1.10;;;;;;;15.10;40.78;99516.44;5046373;28;20053;-71
2021/05/05 07:35:50;;;;;;;3.38;1.30;;;;;;;14.32;41.37;99518.78;5036425;28;20029;-70
2021/05/05 07:38:23;;;;;;;4.30;1.17;;;;;;;14.38;42.13;99525.97;5045233;28;20028;-70
2021/05/05 07:46:32;;;;;;;4.80;1.60;;;;;;;13.70;42.20;99521.41;5039922;28;20029;-70
2021/05/05 07:49:03;;;;;;;4.18;1.27;;;;;;;13.90;42.96;99526.03;5041144;28;20048;-70
2021/05/05 07:51:29;;;;;;;6.32;1.42;;;;;;;13.94;44.50;99541.38;5042617;28;20030;-70
2021/05/05 07:53:55;;;;;;;3.58;1.17;;;;;;;13.55;43.20;99545.44;5040576;28;20057;-70
2021/05/05 07:56:20;;;;;;;4.75;1.40;;;;;;;13.19;42.96;99545.59;5039187;28;20140;-70
2021/05/05 07:58:46;;;;;;;4.60;1.83;;;;;;;13.05;42.62;99541.19;5033597;28;20091;-70
2021/05/05 08:01:13;;;;;;;4.43;1.45;;;;;;;12.73;44.72;99546.03;5035649;28;20168;-70
2021/05/05 08:03:39;;;;;;;5.07;1.33;;;;;;;12.50;47.67;99544.38;5034668;28;20037;-70
2021/05/05 08:06:06;;;;;;;3.78;1.30;;;;;;;12.41;45.98;99534.88;5040680;28;20029;-71
2021/05/05 08:08:31;;;;;;;5.15;1.35;;;;;;;12.56;45.34;99526.06;5035889;28;20415;-71
2021/05/05 08:10:57;;;;;;;3.20;1.20;;;;;;;12.49;44.96;99532.13;5048414;28;20033;-69
2021/05/05 08:13:23;;;;;;;3.67;1.30;;;;;;;12.16;46.69;99526.47;5029594;28;20386;-70
2021/05/05 08:15:49;;;;;;;5.70;1.33;;;;;;;12.02;46.84;99529.97;5030548;28;20183;-70
2021/05/05 08:18:14;;;;;;;5.03;1.45;;;;;;;11.57;47.82;99515.91;5036017;28;20390;-70
2021/05/05 08:20:50;;;;;;;3.90;1.10;;;;;;;11.45;49.78;99528.78;5032660;28;20036;-70
2021/05/05 08:23:28;;;;;;;3.95;1.20;;;;;;;11.24;47.46;99534.78;5018733;28;20076;-70
2021/05/05 08:25:53;;;;;;;4.97;1.27;;;;;;;11.22;49.93;99523.56;5016237;28;20038;-70
2021/05/05 08:28:19;;;;;;;4.15;1.50;;;;;;;11.15;46.35;99533.22;5043453;28;20033;-70
2021/05/05 08:30:44;;;;;;;5.43;1.50;;;;;;;11.39;47.55;99529.50;5035029;28;20405;-70
2021/05/05 08:33:10;;;;;;;3.03;1.00;;;;;;;12.08;45.06;99515.97;5039990;28;20490;-70
2021/05/05 08:35:35;;;;;;;3.65;1.25;;;;;;;12.11;45.34;99542.13;5030393;28;20034;-70
2021/05/05 08:38:00;;;;;;;4.22;1.33;;;;;;;11.76;44.53;99520.66;5043960;28;20033;-69
2021/05/05 08:40:26;;;;;;;4.82;1.40;;;;;;;11.46;45.52;99536.56;5037843;28;20297;-70
2021/05/05 08:42:51;;;;;;;4.53;1.33;;;;;;;11.44;47.00;99535.91;5045534;28;20040;-70
2021/05/05 08:45:19;;;;;;;4.20;1.30;;;;;;;11.45;47.21;99549.97;5037895;28;20033;-70
2021/05/05 08:47:47;;;;;;;2.90;1.33;;;;;;;11.78;47.00;99536.38;5039040;28;20486;-70
2021/05/05 08:50:14;;;;;;;6.47;1.30;;;;;;;12.11;45.63;99526.22;5032817;28;20112;-71
2021/05/05 08:52:41;;;;;;;6.57;1.42;;;;;;;11.99;44.89;99536.47;5041565;28;20091;-69
2021/05/05 08:55:08;;;;;;;5.88;1.23;;;;;;;12.94;40.50;99527.44;5038931;28;20387;-69
2021/05/05 08:57:34;;;;;;;5.28;1.25;;;;;;;13.77;41.94;99524.94;5046049;28;20053;-70
2021/05/05 09:00:00;;;;;;;4.53;0.90;;;;;;;13.78;42.80;99536.41;5046801;28;20064;-70
2021/05/05 09:02:26;;;;;;;4.40;1.15;;;;;;;13.64;40.83;99518.75;5033132;28;20112;-68
2021/05/05 09:04:59;;;;;;;4.55;1.13;;;;;;;13.99;41.27;99522.16;5037928;28;20060;-70
2021/05/05 09:07:36;;;;;;;4.25;1.33;;;;;;;14.68;38.10;99536.28;5042816;28;20033;-70
2021/05/05 09:10:04;;;;;;;2.70;1.20;;;;;;;14.10;38.66;99529.56;5038291;28;20036;-70
2021/05/05 09:12:35;;;;;;;2.88;1.02;;;;;;;13.31;39.03;99514.88;5037340;28;20030;-69
2021/05/05 09:15:06;;;;;;;2.75;1.02;;;;;;;12.83;39.33;99519.19;5030407;28;20033;-69
2021/05/05 09:17:36;;;;;;;3.65;1.10;;;;;;;12.40;42.11;99522.66;5036715;28;20029;-69
2021/05/05 09:20:04;;;;;;;2.97;0.90;;;;;;;12.26;42.62;99520.88;5048706;28;20506;-70
2021/05/05 09:22:43;;;;;;;3.15;1.13;;;;;;;12.04;43.82;99533.25;5050494;28;20040;-70
2021/05/05 09:25:12;;;;;;;5.55;1.20;;;;;;;11.92;42.42;99538.22;5042368;28;20041;-70
2021/05/05 09:27:39;;;;;;;2.67;1.10;;;;;;;11.94;44.23;99541.50;5048144;28;20048;-69
2021/05/05 09:30:07;;;;;;;4.85;1.10;;;;;;;12.13;44.33;99560.47;5048909;28;20037;-70
2021/05/05 09:32:52;;;;;;;3.53;1.20;;;;;;;12.24;44.70;99568.75;5043050;28;20040;-70
2021/05/05 09:35:19;;;;;;;2.75;1.02;;;;;;;12.61;44.15;99576.69;5029548;28;20442;-70
2021/05/05 09:37:59;;;;;;;2.95;1.23;;;;;;;13.05;40.77;99573.84;5039659;28;20060;-70
2021/05/05 09:40:25;;;;;;;3.00;1.17;;;;;;;13.22;40.71;99574.41;5033610;28;20402;-69
2021/05/05 09:42:51;;;;;;;3.28;1.10;;;;;;;13.43;38.50;99580.72;5030154;28;20037;-70
2021/05/05 09:45:17;;;;;;;4.65;0.90;;;;;;;13.13;40.73;99587.00;5044470;28;20040;-70
2021/05/05 09:47:50;;;;;;;3.13;1.20;;;;;;;12.34;40.42;99576.41;5035093;28;20038;-68
2021/05/05 09:50:42;;;;;;;5.25;1.20;;;;;;;11.92;43.79;99600.94;5035728;28;20059;-68
2021/05/05 09:53:16;;;;;;;3.72;0.90;;;;;;;11.09;49.72;99639.78;5036669;28;20064;-70
2021/05/05 09:55:42;;;;;;;2.90;0.77;;;;;;;10.65;51.60;99656.25;5035466;28;20534;-70
2021/05/05 09:58:28;;;;;;;2.65;0.75;;;;;;;10.18;54.44;99673.78;5039365;28;20471;-71
2021/05/05 10:01:06;;;;;;;1.33;0.77;;;;;;;10.11;55.47;99654.31;5034604;28;20514;-71
2021/05/05 10:03:39;;;;;;;2.13;0.77;;;;;;;10.26;57.15;99647.31;5037400;28;20037;-71
2021/05/05 10:06:33;;;;;;;0.88;0.70;;;;;;;10.44;57.25;99656.84;5035177;28;20128;-71
2021/05/05 10:09:05;;;;;;;1.77;0.65;;;;;;;10.92;54.90;99649.66;5037943;28;20041;-71
2021/05/05 10:11:42;;;;;;;0.95;0.60;;;;;;;11.59;50.72;99648.94;5041379;28;20174;-71
2021/05/05 10:14:12;;;;;;;1.40;0.70;;;;;;;11.92;51.42;99660.06;5030471;28;20084;-71
2021/05/05 10:16:41;;;;;;;0.70;0.68;;;;;;;12.22;48.69;99663.53;5033557;28;20029;-70
2021/05/05 10:19:08;;;;;;;0.93;0.65;;;;;;;12.42;47.00;99663.81;5044278;28;20033;-70
2021/05/05 10:21:39;;;;;;;1.40;0.70;;;;;;;12.68;48.45;99665.97;5036753;28;20025;-70
2021/05/05 10:24:06;;;;;;;1.70;0.70;;;;;;;13.02;45.56;99666.31;5043189;28;20794;-72
2021/05/05 10:26:32;;;;;;;2.70;0.90;;;;;;;13.06;43.95;99672.88;5049241;28;20029;-69
2021/05/05 10:28:57;;;;;;;1.75;0.88;;;;;;;13.37;43.60;99672.59;5046735;28;20037;-70
2021/05/05 10:31:24;;;;;;;4.03;0.82;;;;;;;13.25;43.30;99697.97;5037131;28;20029;-67
2021/05/05 10:33:53;;;;;;;1.48;0.80;;;;;;;13.23;44.54;99687.56;5037839;28;20096;-69
2021/05/05 10:36:39;;;;;;;5.47;1.00;;;;;;;13.26;43.42;99689.00;5036969;28;20080;-69
2021/05/05 10:39:17;;;;;;;2.97;0.70;;;;;;;13.44;43.50;99683.25;5043668;28;20516;-69
2021/05/05 10:42:02;;;;;;;2.38;0.82;;;;;;;13.42;44.10;99695.91;5029849;28;20128;-70
2021/05/05 10:44:38;;;;;;;1.75;0.80;;;;;;;13.44;42.15;99693.88;5035390;28;20048;-68
2021/05/05 10:47:31;;;;;;;1.17;0.60;;;;;;;13.51;43.13;99702.75;5039359;28;20030;-70
2021/05/05 10:49:59;;;;;;;0.95;0.60;;;;;;;13.19;42.20;99696.91;5038028;28;20565;-69
2021/05/05 10:52:30;;;;;;;1.25;0.70;;;;;;;12.97;42.66;99712.00;5033484;28;20106;-69
2021/05/05 10:54:58;;;;;;;1.60;0.70;;;;;;;13.01;42.21;99699.16;5036012;28;20163;-68
2021/05/05 10:57:25;;;;;;;2.83;0.68;;;;;;;13.22;42.11;99677.13;5035507;28;20034;-69
2021/05/05 10:59:57;;;;;;;2.13;0.80;;;;;;;13.19;39.00;99691.59;5033094;28;20385;-69
2021/05/05 11:05:10;;;;;;;2.25;0.80;;;;;;;13.54;41.55;99697.06;5043274;28;20041;-68
2021/05/05 11:07:51;;;;;;;1.27;0.80;;;;;;;13.67;41.85;99701.66;5042639;28;20128;-70
2021/05/05 11:10:32;;;;;;;2.60;0.90;;;;;;;13.73;40.79;99703.53;5041857;28;20037;-70
2021/05/05 11:13:01;;;;;;;2.93;1.23;;;;;;;13.52;42.20;99691.13;5039731;28;20038;-70
2021/05/05 11:15:44;;;;;;;2.40;0.95;;;;;;;13.65;42.38;99704.50;5031608;28;20294;-71
2021/05/05 11:18:28;;;;;;;2.22;0.80;;;;;;;13.75;40.04;99701.50;5034939;28;20042;-72
2021/05/05 11:20:59;;;;;;;3.50;0.85;;;;;;;13.37;41.51;99713.25;5034107;28;20033;-70
2021/05/05 11:23:34;;;;;;;1.80;0.80;;;;;;;13.21;42.35;99710.81;5037870;28;20128;-70
2021/05/05 11:26:17;;;;;;;1.20;0.73;;;;;;;13.18;44.69;99716.50;5036462;28;20037;-70
2021/05/05 11:28:56;;;;;;;1.60;0.80;;;;;;;13.20;42.07;99718.97;5036882;28;20391;-69
2021/05/05 11:31:44;;;;;;;2.05;0.95;;;;;;;13.12;40.82;99723.38;5053971;28;20056;-71
2021/05/05 11:34:09;;;;;;;2.33;0.98;;;;;;;13.28;40.58;99732.97;5043129;28;20037;-71
2021/05/05 11:36:35;;;;;;;2.17;0.80;;;;;;;13.30;42.30;99740.72;5050346;28;20044;-70
2021/05/05 11:39:01;;;;;;;1.40;0.80;;;;;;;13.51;41.49;99732.78;5049819;28;20063;-70
2021/05/05 11:41:29;;;;;;;3.38;0.90;;;;;;;13.70;43.94;99733.16;5046635;28;20064;-70
2021/05/05 11:43:54;;;;;;;3.15;0.90;;;;;;;13.48;40.06;99735.81;5040459;28;20644;-71
2021/05/05 11:46:22;;;;;;;1.83;0.80;;;;;;;13.54;41.73;99734.25;5034790;28;20048;-70
2021/05/05 11:48:47;;;;;;;1.52;0.82;;;;;;;13.46;41.09;99723.75;5036635;28;20037;-71